Charter Quote
Worldwide +1-877-727-2538 Call
Select Language Lang
SAFETY RELIABILITY EXPERIENCE

Private Jet Charter Services - Hotan (ZWTN)

Paramount Business Jets offers private jet charter flights and luxury airliner charters to and from Hotan.

AIRPORT INFORMATION
ICAOZWTN
LOCATIONHotan, China
FACILITY TYPEAIRPORT

At Paramount Business Jets you can hire chartered private jets to and from Hotan with as little as 4 hours of notice. All flights booked via Paramount Business Jets are operated by certified direct air carriers that meet and exceed the FAA part 135 and 121 protocol or a foreign equivalent safety authority. Furthermore, Paramount Business Jets subscribes to ARGUS for their third party safety checks of operators, aircraft, and crews prior each and every flight to and from Hotan and worldwide.

  • Quote a trip using Hotan or call us 24/7 - 365 days a year at +1-877-727-2538.
Questions? Call +1-877-727-2538

METAR Weather Data at Hotan, ZWTN

STATIONZWTN
OBSERVEDTue Apr 15, 16:00 UTC
NOWMon Oct 21, 20:33 UTC
AGE48364:33 hr ago
WINDSSW at 4 mph
VISIBILITYgreater than 7 miles
CLOUDSclear skies
TEMP61°F (16°C)
DEWPT10°F (-12°C)
HUMIDITY13%
BAROMETER1014 hPa (29.94 in Hg)
METARZWTN 151600Z 20002MPS CAVOK 16/M12 Q1014 NOSIG

Call us on +1-877-727-2538 (24 Hours) to Hire a Private Jet or Get a Quick Quote.

Find Airports Near any Location

Processing
...